createdAt,value
2022-12-25T00:01:52.204Z,100.00
2022-12-25T00:04:19.674Z,100.00
2022-12-25T00:06:47.067Z,100.00
2022-12-25T00:09:15.554Z,100.00
2022-12-25T00:11:43.215Z,100.00
2022-12-25T00:14:10.387Z,100.00
2022-12-25T00:16:40.097Z,100.00
2022-12-25T00:19:07.426Z,100.00
2022-12-25T00:21:35.799Z,100.00
2022-12-25T00:24:03.882Z,100.00
2022-12-25T00:26:32.266Z,100.00
2022-12-25T00:28:59.818Z,100.00
2022-12-25T00:31:27.553Z,100.00
2022-12-25T00:33:56.248Z,100.00
2022-12-25T00:36:24.074Z,100.00
2022-12-25T00:38:51.743Z,100.00
2022-12-25T00:41:43.834Z,100.00
2022-12-25T00:44:13.987Z,100.00
2022-12-25T00:46:42.977Z,100.00
2022-12-25T00:49:11.544Z,100.00
2022-12-25T00:51:38.832Z,100.00
2022-12-25T00:54:06.477Z,100.00
2022-12-25T00:56:34.064Z,100.00
2022-12-25T00:59:01.405Z,100.00
2022-12-25T01:01:28.563Z,100.00
2022-12-25T01:03:57.129Z,100.00
2022-12-25T01:06:26.195Z,100.00
2022-12-25T01:09:11.824Z,100.00
2022-12-25T01:11:40.536Z,100.00
2022-12-25T01:14:07.880Z,100.00
2022-12-25T01:16:36.760Z,100.00
2022-12-25T01:19:05.077Z,100.00
2022-12-25T01:21:33.634Z,100.00
2022-12-25T01:24:02.285Z,100.00
2022-12-25T01:26:29.746Z,100.00
2022-12-25T01:28:57.206Z,100.00
2022-12-25T01:31:25.637Z,100.00
2022-12-25T01:33:53.309Z,100.00
2022-12-25T01:36:24.284Z,100.00
2022-12-25T01:38:53.401Z,100.00
2022-12-25T01:41:24.074Z,100.00
2022-12-25T01:44:07.799Z,100.00
2022-12-25T01:46:35.876Z,100.00
2022-12-25T01:49:10.437Z,100.00
2022-12-25T01:51:45.450Z,100.00
2022-12-25T01:54:18.384Z,100.00
2022-12-25T01:56:50.136Z,100.00
2022-12-25T01:59:21.665Z,100.00
2022-12-25T02:01:49.467Z,100.00
2022-12-25T02:04:40.618Z,100.00
2022-12-25T02:07:20.641Z,100.00
2022-12-25T02:09:49.400Z,100.00
2022-12-25T02:12:28.618Z,100.00
2022-12-25T02:15:05.298Z,100.00
2022-12-25T02:17:53.785Z,100.00
2022-12-25T02:20:27.137Z,100.00
2022-12-25T02:23:13.943Z,100.00
2022-12-25T02:26:00.360Z,100.00
2022-12-25T02:29:03.435Z,100.00
2022-12-25T02:31:40.402Z,100.00
2022-12-25T02:34:46.794Z,100.00
2022-12-25T02:37:22.254Z,100.00
2022-12-25T02:40:10.799Z,100.00
2022-12-25T02:43:17.188Z,100.00
2022-12-25T02:46:26.718Z,100.00
2022-12-25T02:49:18.502Z,100.00
2022-12-25T02:52:08.939Z,100.00
2022-12-25T02:55:00.915Z,100.00
2022-12-25T02:57:58.980Z,100.00
2022-12-25T03:00:45.183Z,100.00
2022-12-25T03:03:34.703Z,100.00
2022-12-25T03:06:39.678Z,100.00
2022-12-25T03:09:40.598Z,100.00
2022-12-25T03:12:15.916Z,100.00
2022-12-25T03:15:01.835Z,100.00
2022-12-25T03:17:32.845Z,100.00
2022-12-25T03:20:19.726Z,100.00
2022-12-25T03:23:06.593Z,100.00
2022-12-25T03:25:52.886Z,100.00
2022-12-25T03:28:20.240Z,100.00
2022-12-25T03:31:14.529Z,100.00
2022-12-25T03:34:18.411Z,100.00
2022-12-25T03:37:30.900Z,100.00
2022-12-25T03:40:28.756Z,100.00
2022-12-25T03:43:27.267Z,100.00
2022-12-25T03:46:21.644Z,100.00
2022-12-25T03:49:17.789Z,100.00
2022-12-25T03:52:05.159Z,100.00
2022-12-25T03:54:55.874Z,100.00
2022-12-25T03:57:43.556Z,100.00
2022-12-25T04:00:30.121Z,100.00
2022-12-25T04:03:16.277Z,100.00
2022-12-25T04:06:02.292Z,100.00
2022-12-25T04:08:48.300Z,100.00
2022-12-25T04:11:34.086Z,100.00
2022-12-25T04:14:19.712Z,100.00
2022-12-25T04:17:07.628Z,100.00
2022-12-25T04:19:52.969Z,100.00
2022-12-25T04:22:38.719Z,100.00
2022-12-25T04:25:31.076Z,100.00
2022-12-25T04:28:23.955Z,100.00
2022-12-25T04:31:10.078Z,100.00
2022-12-25T04:33:55.996Z,100.00
2022-12-25T04:36:29.428Z,100.00
2022-12-25T04:38:56.748Z,100.00
2022-12-25T04:41:26.035Z,100.00
2022-12-25T04:43:53.437Z,100.00
2022-12-25T04:46:21.968Z,100.00
2022-12-25T04:48:49.367Z,100.00
2022-12-25T04:51:23.975Z,100.00
2022-12-25T04:53:52.397Z,100.00
2022-12-25T04:56:21.796Z,100.00
2022-12-25T04:58:49.776Z,100.00
2022-12-25T05:01:19.216Z,100.00
2022-12-25T05:03:46.793Z,100.00
2022-12-25T05:06:15.120Z,100.00
2022-12-25T05:08:44.680Z,100.00
2022-12-25T05:11:15.127Z,100.00
2022-12-25T05:13:43.142Z,100.00
2022-12-25T05:16:14.073Z,100.00
2022-12-25T05:18:41.830Z,100.00
2022-12-25T05:21:15.280Z,100.00
2022-12-25T05:23:48.881Z,100.00
2022-12-25T05:26:22.723Z,100.00
2022-12-25T05:28:51.398Z,100.00
2022-12-25T05:31:19.753Z,100.00
2022-12-25T05:33:50.849Z,100.00
2022-12-25T05:36:18.242Z,100.00
2022-12-25T05:38:47.496Z,100.00
2022-12-25T05:41:16.956Z,100.00
2022-12-25T05:43:50.527Z,100.00
2022-12-25T05:46:18.300Z,100.00
2022-12-25T05:48:45.868Z,100.00
2022-12-25T05:51:15.092Z,100.00
2022-12-25T05:53:44.230Z,100.00
2022-12-25T05:56:11.949Z,100.00
2022-12-25T05:58:41.329Z,100.00
2022-12-25T06:01:14.976Z,100.00
2022-12-25T06:03:42.545Z,100.00
2022-12-25T06:06:12.251Z,100.00
2022-12-25T06:08:46.837Z,100.00
2022-12-25T06:11:16.501Z,100.00
2022-12-25T06:13:44.404Z,100.00
2022-12-25T06:16:13.228Z,100.00
2022-12-25T06:18:43.833Z,100.00
2022-12-25T06:21:13.675Z,100.00
2022-12-25T06:23:41.881Z,100.00
2022-12-25T06:26:12.929Z,100.00
2022-12-25T06:28:40.515Z,100.00
2022-12-25T06:31:10.573Z,100.00
2022-12-25T06:33:38.489Z,100.00
2022-12-25T06:36:11.743Z,100.00
2022-12-25T06:38:39.438Z,100.00
2022-12-25T06:41:11.891Z,100.00
2022-12-25T06:43:40.361Z,100.00
2022-12-25T06:46:11.037Z,100.00
2022-12-25T06:48:40.114Z,100.00
2022-12-25T06:51:08.802Z,100.00
2022-12-25T06:53:40.303Z,100.00
2022-12-25T06:56:16.230Z,100.00
2022-12-25T06:58:49.467Z,100.00
2022-12-25T07:01:24.264Z,100.00
2022-12-25T07:03:56.209Z,100.00
2022-12-25T07:06:24.148Z,100.00
2022-12-25T07:08:51.887Z,100.00
2022-12-25T07:11:19.484Z,100.00
2022-12-25T07:13:47.162Z,100.00
2022-12-25T07:16:15.312Z,100.00
2022-12-25T07:18:42.591Z,100.00
2022-12-25T07:21:16.145Z,100.00
2022-12-25T07:23:45.321Z,100.00
2022-12-25T07:26:13.980Z,100.00
2022-12-25T07:28:42.318Z,100.00
2022-12-25T07:31:15.480Z,100.00
2022-12-25T07:33:44.147Z,100.00
2022-12-25T07:36:14.247Z,100.00
2022-12-25T07:38:44.550Z,100.00
2022-12-25T07:41:13.494Z,100.00
2022-12-25T07:43:41.216Z,100.00
2022-12-25T07:46:08.622Z,100.00
2022-12-25T07:48:36.440Z,100.00
2022-12-25T07:51:07.037Z,100.00
2022-12-25T07:53:41.242Z,100.00
2022-12-25T07:56:15.196Z,100.00
2022-12-25T07:58:44.277Z,100.00
2022-12-25T08:01:19.730Z,100.00
2022-12-25T08:03:52.988Z,100.00
2022-12-25T08:06:22.095Z,100.00
2022-12-25T08:08:51.330Z,100.00
2022-12-25T08:11:18.947Z,100.00
2022-12-25T08:13:46.457Z,100.00
2022-12-25T08:16:14.199Z,100.00
2022-12-25T08:18:41.594Z,100.00
2022-12-25T08:21:12.967Z,100.00
2022-12-25T08:23:45.940Z,100.00
2022-12-25T08:26:17.195Z,100.00
2022-12-25T08:28:45.961Z,100.00
2022-12-25T08:31:25.718Z,100.00
2022-12-25T08:33:55.908Z,100.00
2022-12-25T08:36:23.998Z,100.00
2022-12-25T08:38:53.462Z,100.00
2022-12-25T08:41:23.550Z,100.00
2022-12-25T08:43:51.037Z,100.00
2022-12-25T08:46:18.497Z,100.00
2022-12-25T08:48:48.744Z,100.00
2022-12-25T08:51:20.434Z,100.00
2022-12-25T08:53:51.367Z,94.26
2022-12-25T08:56:20.828Z,84.25
2022-12-25T08:58:48.400Z,76.60
2022-12-25T09:01:15.889Z,70.94
2022-12-25T09:03:43.811Z,67.15
2022-12-25T09:06:16.886Z,64.55
2022-12-25T09:08:49.278Z,63.66
2022-12-25T09:11:18.984Z,61.75
2022-12-25T09:13:47.409Z,60.28
2022-12-25T09:16:20.515Z,58.71
2022-12-25T09:18:50.190Z,57.44
2022-12-25T09:21:18.566Z,58.09
2022-12-25T09:23:46.040Z,57.44
2022-12-25T09:26:16.321Z,55.59
2022-12-25T09:28:50.857Z,55.44
2022-12-25T09:31:23.896Z,53.33
2022-12-25T09:33:56.052Z,52.23
2022-12-25T09:36:25.270Z,52.21
2022-12-25T09:38:53.666Z,51.30
2022-12-25T09:41:21.205Z,50.12
2022-12-25T09:44:12.285Z,50.98
2022-12-25T09:46:51.677Z,50.95
2022-12-25T09:49:49.355Z,49.71
2022-12-25T09:52:45.107Z,49.42
2022-12-25T09:55:20.720Z,48.51
2022-12-25T09:57:57.087Z,47.95
2022-12-25T10:00:35.195Z,48.39
2022-12-25T10:03:05.799Z,46.78
2022-12-25T10:06:01.035Z,46.90
2022-12-25T10:09:06.948Z,47.29
2022-12-25T10:11:50.196Z,47.01
2022-12-25T10:14:39.510Z,47.84
2022-12-25T10:17:41.157Z,51.27
2022-12-25T10:20:36.524Z,50.25
2022-12-25T10:23:09.830Z,52.21
2022-12-25T10:25:39.718Z,54.29
2022-12-25T10:28:15.308Z,56.76
2022-12-25T10:30:46.427Z,57.23
2022-12-25T10:33:17.417Z,55.23
2022-12-25T10:35:46.491Z,54.90
2022-12-25T10:38:16.719Z,52.48
2022-12-25T10:41:05.924Z,52.11
2022-12-25T10:44:35.205Z,52.33
2022-12-25T10:47:04.553Z,53.00
2022-12-25T10:49:40.207Z,52.94
2022-12-25T10:52:22.429Z,53.08
2022-12-25T10:54:51.521Z,53.51
2022-12-25T10:57:22.427Z,53.14
2022-12-25T10:59:56.393Z,54.78
2022-12-25T11:02:27.364Z,56.17
2022-12-25T11:05:22.011Z,55.53
2022-12-25T11:07:56.593Z,51.97
2022-12-25T11:10:38.932Z,51.63
2022-12-25T11:13:08.547Z,50.30
2022-12-25T11:15:51.026Z,48.07
2022-12-25T11:18:23.044Z,48.74
2022-12-25T11:20:55.746Z,48.81
2022-12-25T11:23:25.707Z,49.06
2022-12-25T11:26:02.195Z,47.16
2022-12-25T11:28:31.907Z,45.21
2022-12-25T11:31:09.337Z,42.41
2022-12-25T11:33:43.121Z,43.01
2022-12-25T11:36:16.162Z,42.99
2022-12-25T11:38:43.791Z,45.01
2022-12-25T11:41:19.352Z,46.00
2022-12-25T11:43:59.640Z,47.35
2022-12-25T11:46:46.386Z,48.37
2022-12-25T11:49:21.444Z,48.56
2022-12-25T11:51:54.650Z,46.28
2022-12-25T11:54:40.527Z,46.70
2022-12-25T11:57:13.092Z,47.95
2022-12-25T12:00:04.537Z,49.48
2022-12-25T12:03:03.266Z,49.72
2022-12-25T12:05:46.526Z,47.17
2022-12-25T12:08:14.826Z,48.97
2022-12-25T12:11:19.093Z,49.13
2022-12-25T12:14:17.194Z,48.97
2022-12-25T12:16:44.828Z,48.58
2022-12-25T12:19:24.484Z,48.76
2022-12-25T12:21:56.073Z,45.81
2022-12-25T12:24:25.877Z,47.72
2022-12-25T12:27:15.149Z,48.48
2022-12-25T12:29:49.511Z,47.41
2022-12-25T12:32:32.524Z,48.68
2022-12-25T12:35:01.211Z,46.79
2022-12-25T12:37:36.082Z,44.02
2022-12-25T12:40:06.555Z,44.11
2022-12-25T12:42:40.596Z,45.29
2022-12-25T12:45:27.857Z,43.88
2022-12-25T12:47:56.045Z,43.38
2022-12-25T12:50:41.262Z,43.51
2022-12-25T12:53:26.594Z,44.49
2022-12-25T12:55:54.548Z,45.83
2022-12-25T12:58:34.772Z,47.48
2022-12-25T13:01:15.568Z,47.82
2022-12-25T13:04:22.384Z,51.95
2022-12-25T13:07:03.098Z,53.34
2022-12-25T13:09:50.284Z,52.82
2022-12-25T13:12:19.259Z,52.89
2022-12-25T13:14:48.476Z,54.16
2022-12-25T13:17:26.441Z,52.83
2022-12-25T13:20:00.117Z,51.10
2022-12-25T13:22:38.356Z,52.42
2022-12-25T13:25:17.845Z,54.14
2022-12-25T13:27:45.221Z,56.06
2022-12-25T13:30:14.789Z,60.75
2022-12-25T13:32:46.169Z,62.98
2022-12-25T13:35:16.549Z,62.87
2022-12-25T13:37:45.095Z,63.28
2022-12-25T13:40:26.674Z,63.47
2022-12-25T13:43:01.928Z,64.58
2022-12-25T13:45:31.406Z,64.45
2022-12-25T13:48:14.832Z,66.13
2022-12-25T13:50:48.702Z,68.08
2022-12-25T13:53:17.797Z,70.15
2022-12-25T13:55:52.745Z,72.77
2022-12-25T13:58:33.928Z,75.21
2022-12-25T14:01:12.183Z,75.04
2022-12-25T14:03:46.399Z,74.97
2022-12-25T14:06:27.506Z,73.74
2022-12-25T14:09:00.340Z,72.20
2022-12-25T14:11:34.005Z,73.45
2022-12-25T14:14:04.488Z,73.07
2022-12-25T14:16:31.996Z,74.48
2022-12-25T14:19:01.982Z,78.04
2022-12-25T14:21:33.773Z,80.01
2022-12-25T14:24:01.874Z,82.10
2022-12-25T14:26:34.277Z,82.78
2022-12-25T14:29:16.737Z,83.27
2022-12-25T14:31:46.471Z,84.51
2022-12-25T14:34:22.512Z,86.45
2022-12-25T14:36:51.114Z,88.17
2022-12-25T14:39:36.931Z,89.76
2022-12-25T14:42:20.943Z,91.13
2022-12-25T14:45:33.955Z,92.24
2022-12-25T14:48:24.605Z,93.98
2022-12-25T14:51:04.858Z,95.39
2022-12-25T14:53:56.488Z,96.63
2022-12-25T14:56:28.119Z,98.07
2022-12-25T14:59:00.127Z,99.04
2022-12-25T15:01:51.438Z,99.60
2022-12-25T15:04:20.968Z,99.86
2022-12-25T15:07:09.900Z,99.88
2022-12-25T15:09:38.117Z,100.00
2022-12-25T15:12:05.692Z,100.00
2022-12-25T15:14:36.663Z,100.00
2022-12-25T15:17:04.509Z,99.82
2022-12-25T15:19:39.032Z,99.90
2022-12-25T15:22:07.147Z,99.85
2022-12-25T15:24:42.581Z,99.71
2022-12-25T15:27:19.078Z,99.40
2022-12-25T15:30:11.097Z,99.18
2022-12-25T15:32:38.807Z,99.58
2022-12-25T15:35:19.549Z,99.76
2022-12-25T15:37:49.975Z,99.65
2022-12-25T15:40:20.047Z,99.74
2022-12-25T15:42:49.570Z,99.34
2022-12-25T15:45:38.639Z,99.49
2022-12-25T15:48:06.073Z,99.70
2022-12-25T15:50:37.043Z,100.00
2022-12-25T15:53:04.380Z,100.00
2022-12-25T15:55:32.240Z,100.00
2022-12-25T15:57:59.522Z,100.00
2022-12-25T16:00:30.165Z,100.00
2022-12-25T16:02:59.629Z,100.00
2022-12-25T16:05:27.555Z,100.00
2022-12-25T16:07:55.901Z,100.00
2022-12-25T16:10:23.456Z,100.00
2022-12-25T16:12:50.912Z,100.00
2022-12-25T16:15:18.442Z,100.00
2022-12-25T16:17:45.809Z,100.00
2022-12-25T16:20:13.580Z,100.00
2022-12-25T16:22:41.312Z,100.00
2022-12-25T16:25:19.965Z,100.00
2022-12-25T16:27:47.849Z,100.00
2022-12-25T16:30:18.458Z,100.00
2022-12-25T16:32:53.264Z,100.00
2022-12-25T16:35:21.620Z,100.00
2022-12-25T16:37:48.965Z,100.00
2022-12-25T16:40:18.421Z,100.00
2022-12-25T16:42:45.999Z,100.00
2022-12-25T16:45:13.587Z,100.00
2022-12-25T16:47:40.926Z,100.00
2022-12-25T16:50:09.953Z,100.00
2022-12-25T16:52:37.326Z,100.00
2022-12-25T16:55:06.386Z,100.00
2022-12-25T16:57:33.877Z,100.00
2022-12-25T17:00:01.203Z,100.00
2022-12-25T17:02:30.022Z,100.00
2022-12-25T17:04:57.547Z,100.00
2022-12-25T17:07:25.131Z,100.00
2022-12-25T17:09:54.755Z,100.00
2022-12-25T17:12:23.236Z,100.00
2022-12-25T17:14:52.960Z,100.00
2022-12-25T17:17:20.827Z,100.00
2022-12-25T17:19:47.982Z,100.00
2022-12-25T17:22:15.570Z,100.00
2022-12-25T17:24:43.055Z,100.00
2022-12-25T17:27:10.522Z,100.00
2022-12-25T17:29:40.743Z,100.00
2022-12-25T17:32:11.220Z,100.00
2022-12-25T17:34:38.912Z,100.00
2022-12-25T17:37:06.801Z,100.00
2022-12-25T17:39:34.420Z,100.00
2022-12-25T17:42:01.849Z,100.00
2022-12-25T17:44:29.329Z,100.00
2022-12-25T17:46:56.795Z,100.00
2022-12-25T17:49:24.474Z,100.00
2022-12-25T17:51:53.917Z,100.00
2022-12-25T17:54:21.174Z,100.00
2022-12-25T17:56:49.713Z,100.00
2022-12-25T17:59:19.017Z,100.00
2022-12-25T18:01:48.455Z,100.00
2022-12-25T18:04:16.293Z,100.00
2022-12-25T18:06:43.598Z,100.00
2022-12-25T18:09:12.923Z,100.00
2022-12-25T18:11:42.565Z,100.00
2022-12-25T18:14:17.331Z,100.00
2022-12-25T18:16:50.919Z,100.00
2022-12-25T18:19:18.806Z,100.00
2022-12-25T18:21:46.205Z,100.00
2022-12-25T18:24:13.782Z,100.00
2022-12-25T18:27:09.079Z,100.00
2022-12-25T18:29:36.776Z,100.00
2022-12-25T18:32:04.454Z,100.00
2022-12-25T18:34:32.432Z,100.00
2022-12-25T18:37:03.346Z,100.00
2022-12-25T18:39:33.303Z,100.00
2022-12-25T18:42:19.233Z,100.00
2022-12-25T18:44:48.565Z,100.00
2022-12-25T18:47:16.031Z,100.00
2022-12-25T18:49:51.659Z,100.00
2022-12-25T18:52:50.373Z,100.00
2022-12-25T18:55:09.291Z,100.00
2022-12-25T18:57:38.025Z,100.00
2022-12-25T19:00:10.984Z,100.00
2022-12-25T19:02:38.365Z,100.00
2022-12-25T19:05:08.409Z,100.00
2022-12-25T19:07:37.131Z,100.00
2022-12-25T19:10:06.075Z,100.00
2022-12-25T19:12:34.379Z,100.00
2022-12-25T19:15:08.340Z,100.00
2022-12-25T19:17:37.033Z,100.00
2022-12-25T19:20:06.382Z,100.00
2022-12-25T19:22:38.827Z,100.00
2022-12-25T19:25:07.965Z,100.00
2022-12-25T19:27:36.270Z,100.00
2022-12-25T19:30:07.184Z,100.00
2022-12-25T19:32:35.072Z,100.00
2022-12-25T19:35:04.985Z,100.00
2022-12-25T19:37:33.823Z,100.00
2022-12-25T19:40:01.218Z,100.00
2022-12-25T19:42:28.743Z,100.00
2022-12-25T19:44:56.372Z,100.00
2022-12-25T19:47:26.127Z,100.00
2022-12-25T19:49:56.279Z,100.00
2022-12-25T19:52:25.669Z,100.00
2022-12-25T19:54:53.352Z,100.00
2022-12-25T19:57:22.749Z,100.00
2022-12-25T19:59:50.284Z,100.00
2022-12-25T20:02:17.941Z,100.00
2022-12-25T20:04:45.470Z,100.00
2022-12-25T20:07:13.408Z,100.00
2022-12-25T20:09:40.901Z,100.00
2022-12-25T20:12:16.636Z,100.00
2022-12-25T20:14:45.196Z,100.00
2022-12-25T20:17:18.763Z,100.00
2022-12-25T20:19:52.527Z,100.00
2022-12-25T20:22:26.466Z,100.00
2022-12-25T20:24:54.867Z,100.00
2022-12-25T20:27:22.573Z,100.00
2022-12-25T20:29:50.852Z,100.00
2022-12-25T20:32:19.473Z,100.00
2022-12-25T20:34:48.806Z,100.00
2022-12-25T20:37:16.640Z,100.00
2022-12-25T20:39:46.481Z,100.00
2022-12-25T20:42:14.411Z,100.00
2022-12-25T20:44:48.119Z,100.00
2022-12-25T20:47:16.151Z,100.00
2022-12-25T20:49:43.857Z,100.00
2022-12-25T20:52:11.467Z,100.00
2022-12-25T20:54:38.809Z,100.00
2022-12-25T20:57:06.312Z,100.00
2022-12-25T20:59:37.898Z,100.00
2022-12-25T21:02:05.952Z,100.00
2022-12-25T21:04:34.728Z,100.00
2022-12-25T21:07:02.912Z,100.00
2022-12-25T21:09:30.908Z,100.00
2022-12-25T21:11:59.548Z,100.00
2022-12-25T21:14:29.812Z,100.00
2022-12-25T21:16:57.308Z,100.00
2022-12-25T21:19:24.550Z,100.00
2022-12-25T21:21:51.912Z,100.00
2022-12-25T21:24:19.675Z,100.00
2022-12-25T21:26:48.298Z,100.00
2022-12-25T21:29:16.400Z,100.00
2022-12-25T21:32:02.134Z,100.00
2022-12-25T21:34:30.914Z,100.00
2022-12-25T21:36:59.297Z,100.00
2022-12-25T21:39:26.617Z,100.00
2022-12-25T21:41:54.045Z,100.00
2022-12-25T21:44:21.736Z,100.00
2022-12-25T21:46:50.113Z,100.00
2022-12-25T21:49:37.370Z,100.00
2022-12-25T21:52:07.845Z,100.00
2022-12-25T21:54:36.003Z,100.00
2022-12-25T21:57:04.541Z,100.00
2022-12-25T21:59:31.993Z,100.00
2022-12-25T22:01:59.882Z,100.00
2022-12-25T22:04:27.691Z,100.00
2022-12-25T22:07:15.617Z,100.00
2022-12-25T22:09:50.132Z,100.00
2022-12-25T22:12:39.940Z,100.00
2022-12-25T22:15:10.163Z,100.00
2022-12-25T22:18:01.110Z,100.00
2022-12-25T22:20:37.163Z,100.00
2022-12-25T22:23:05.388Z,100.00
2022-12-25T22:25:33.773Z,100.00
2022-12-25T22:28:02.174Z,100.00
2022-12-25T22:30:30.030Z,100.00
2022-12-25T22:32:58.736Z,100.00
2022-12-25T22:35:27.103Z,100.00
2022-12-25T22:37:54.765Z,100.00
2022-12-25T22:40:22.443Z,100.00
2022-12-25T22:42:49.991Z,100.00
2022-12-25T22:45:18.671Z,100.00
2022-12-25T22:47:46.051Z,100.00
2022-12-25T22:50:16.147Z,100.00
2022-12-25T22:52:43.244Z,100.00
2022-12-25T22:55:10.755Z,100.00
2022-12-25T22:57:40.656Z,100.00
2022-12-25T23:00:09.202Z,100.00
2022-12-25T23:02:42.823Z,100.00
2022-12-25T23:05:10.548Z,100.00
2022-12-25T23:07:37.957Z,100.00
2022-12-25T23:10:06.714Z,100.00
2022-12-25T23:12:53.705Z,100.00
2022-12-25T23:15:21.111Z,100.00
2022-12-25T23:18:07.674Z,100.00
2022-12-25T23:20:55.309Z,100.00
2022-12-25T23:23:41.160Z,100.00
2022-12-25T23:26:11.446Z,100.00
2022-12-25T23:29:00.907Z,100.00
2022-12-25T23:31:35.989Z,100.00
2022-12-25T23:34:05.599Z,100.00
2022-12-25T23:36:34.784Z,100.00
2022-12-25T23:39:09.058Z,100.00
2022-12-25T23:41:38.814Z,100.00
2022-12-25T23:44:07.215Z,100.00
2022-12-25T23:46:35.460Z,100.00
2022-12-25T23:49:04.476Z,100.00
2022-12-25T23:51:31.865Z,100.00
2022-12-25T23:53:58.909Z,100.00
2022-12-25T23:56:26.297Z,100.00
2022-12-25T23:58:53.648Z,100.00
